createdAt,value
2017-11-30T00:02:09.030Z,94230.73
2017-11-30T00:04:36.501Z,94236.66
2017-11-30T00:07:03.990Z,94236.55
2017-11-30T00:09:31.463Z,94232.91
2017-11-30T00:11:58.934Z,94232.02
2017-11-30T00:14:26.422Z,94231.39
2017-11-30T00:16:53.891Z,94232.92
2017-11-30T00:19:21.355Z,94237.98
2017-11-30T00:21:48.843Z,94232.70
2017-11-30T00:24:16.311Z,94237.45
2017-11-30T00:26:43.778Z,94234.55
2017-11-30T00:29:11.263Z,94233.95
2017-11-30T00:31:38.747Z,94227.84
2017-11-30T00:34:06.222Z,94232.95
2017-11-30T00:36:33.718Z,94241.80
2017-11-30T00:39:01.191Z,94232.82
2017-11-30T00:41:28.874Z,94233.44
2017-11-30T00:43:56.342Z,94234.62
2017-11-30T00:46:23.810Z,94230.52
2017-11-30T00:48:51.277Z,94232.61
2017-11-30T00:51:18.808Z,94235.11
2017-11-30T00:53:46.274Z,94240.45
2017-11-30T00:56:13.738Z,94237.44
2017-11-30T00:58:41.227Z,94240.73
2017-11-30T01:01:08.698Z,94243.95
2017-11-30T01:03:36.175Z,94241.51
2017-11-30T01:06:03.666Z,94242.23
2017-11-30T01:08:31.138Z,94245.91
2017-11-30T01:10:58.614Z,94250.41
2017-11-30T01:13:26.110Z,94253.16
2017-11-30T01:15:53.579Z,94252.56
2017-11-30T01:18:21.070Z,94253.73
2017-11-30T01:20:48.554Z,94253.61
2017-11-30T01:23:16.047Z,94250.06
2017-11-30T01:25:43.583Z,94251.36
2017-11-30T01:28:11.058Z,94259.98
2017-11-30T01:30:38.553Z,94254.13
2017-11-30T01:33:06.027Z,94259.51
2017-11-30T01:35:33.505Z,94260.03
2017-11-30T01:38:00.995Z,94258.08
2017-11-30T01:40:28.486Z,94261.62
2017-11-30T01:42:55.978Z,94257.67
2017-11-30T01:45:23.458Z,94262.90
2017-11-30T01:47:50.938Z,94252.24
2017-11-30T01:50:18.422Z,94260.34
2017-11-30T01:52:45.891Z,94255.06
2017-11-30T01:55:13.383Z,94253.22
2017-11-30T01:57:40.858Z,94250.92
2017-11-30T02:00:08.335Z,94254.08
2017-11-30T02:02:35.827Z,94255.98
2017-11-30T02:05:03.303Z,94251.80
2017-11-30T02:07:30.791Z,94252.56
2017-11-30T02:09:58.338Z,94242.64
2017-11-30T02:12:25.806Z,94251.96
2017-11-30T02:14:53.290Z,94253.36
2017-11-30T02:17:20.766Z,94250.19
2017-11-30T02:22:39.183Z,94252.89
2017-11-30T02:25:06.654Z,94253.42
2017-11-30T02:27:34.133Z,94251.25
2017-11-30T02:30:01.637Z,94253.96
2017-11-30T02:32:29.112Z,94253.16
2017-11-30T02:34:56.595Z,94256.23
2017-11-30T02:37:24.097Z,94261.50
2017-11-30T02:39:51.567Z,94261.56
2017-11-30T02:42:19.042Z,94259.74
2017-11-30T02:44:46.533Z,94261.31
2017-11-30T02:47:14.048Z,94257.10
2017-11-30T02:49:41.521Z,94266.05
2017-11-30T02:52:09.060Z,94256.90
2017-11-30T02:54:36.535Z,94264.30
2017-11-30T02:57:04.005Z,94266.50
2017-11-30T02:59:31.493Z,94260.25
2017-11-30T03:01:58.974Z,94259.20
2017-11-30T03:04:26.456Z,94261.31
2017-11-30T03:06:53.946Z,94264.38
2017-11-30T03:09:21.415Z,94260.69
2017-11-30T03:11:48.898Z,94262.92
2017-11-30T03:14:16.390Z,94263.88
2017-11-30T03:16:43.874Z,94264.83
2017-11-30T03:19:11.362Z,94260.52
2017-11-30T03:21:38.834Z,94262.88
2017-11-30T03:24:06.313Z,94262.28
2017-11-30T03:26:33.978Z,94264.91
2017-11-30T03:29:01.453Z,94268.05
2017-11-30T03:31:28.945Z,94271.61
2017-11-30T03:33:56.418Z,94270.05
2017-11-30T03:36:23.885Z,94268.20
2017-11-30T03:38:51.370Z,94272.34
2017-11-30T03:41:18.846Z,94269.63
2017-11-30T03:43:46.367Z,94270.23
2017-11-30T03:46:13.843Z,94272.52
2017-11-30T03:48:41.337Z,94267.91
2017-11-30T03:51:08.829Z,94274.36
2017-11-30T03:53:36.309Z,94270.73
2017-11-30T03:56:03.793Z,94274.58
2017-11-30T03:58:31.263Z,94278.63
2017-11-30T04:00:58.729Z,94280.19
2017-11-30T04:03:26.215Z,94281.00
2017-11-30T04:05:53.685Z,94283.08
2017-11-30T04:08:21.245Z,94276.44
2017-11-30T04:10:48.714Z,94271.52
2017-11-30T04:13:16.190Z,94271.67
2017-11-30T04:15:43.683Z,94269.36
2017-11-30T04:18:11.162Z,94267.84
2017-11-30T04:20:38.631Z,94277.91
2017-11-30T04:23:06.134Z,94276.95
2017-11-30T04:25:33.614Z,94277.11
2017-11-30T04:28:01.090Z,94273.69
2017-11-30T04:30:28.581Z,94279.53
2017-11-30T04:32:56.053Z,94278.43
2017-11-30T04:35:23.527Z,94281.38
2017-11-30T04:37:51.029Z,94281.95
2017-11-30T04:40:18.503Z,94278.91
2017-11-30T04:42:46.047Z,94278.93
2017-11-30T04:45:13.534Z,94279.73
2017-11-30T04:47:41.006Z,94278.31
2017-11-30T04:50:08.474Z,94283.33
2017-11-30T04:52:35.962Z,94278.44
2017-11-30T04:55:03.445Z,94283.95
2017-11-30T04:57:30.924Z,94287.92
2017-11-30T04:59:58.420Z,94284.17
2017-11-30T05:02:25.890Z,94284.92
2017-11-30T05:04:53.383Z,94285.09
2017-11-30T05:07:20.858Z,94290.84
2017-11-30T05:09:48.330Z,94283.87
2017-11-30T05:12:15.830Z,94290.71
2017-11-30T05:14:43.306Z,94282.92
2017-11-30T05:17:10.786Z,94286.81
2017-11-30T05:19:38.277Z,94281.09
2017-11-30T05:22:05.760Z,94284.69
2017-11-30T05:24:33.233Z,94280.66
2017-11-30T05:27:00.734Z,94284.78
2017-11-30T05:29:28.207Z,94284.58
2017-11-30T05:31:55.682Z,94283.00
2017-11-30T05:34:23.175Z,94280.38
2017-11-30T05:36:50.646Z,94278.91
2017-11-30T05:39:18.118Z,94283.13
2017-11-30T05:41:45.630Z,94278.95
2017-11-30T05:44:13.101Z,94284.01
2017-11-30T05:46:40.573Z,94277.70
2017-11-30T05:49:08.069Z,94273.47
2017-11-30T05:51:35.558Z,94270.37
2017-11-30T05:54:03.032Z,94263.00
2017-11-30T05:56:30.602Z,94258.17
2017-11-30T05:58:58.076Z,94259.91
2017-11-30T06:01:25.555Z,94253.95
2017-11-30T06:03:53.041Z,94258.70
2017-11-30T06:06:20.534Z,94252.14
2017-11-30T06:08:48.030Z,94261.55
2017-11-30T06:11:15.524Z,94256.56
2017-11-30T06:13:43.007Z,94248.50
2017-11-30T06:16:10.499Z,94251.53
2017-11-30T06:18:37.980Z,94246.62
2017-11-30T06:21:05.462Z,94244.47
2017-11-30T06:23:32.954Z,94248.09
2017-11-30T06:26:00.438Z,94247.17
2017-11-30T06:28:27.926Z,94255.31
2017-11-30T06:30:55.401Z,94255.41
2017-11-30T06:33:22.869Z,94258.11
2017-11-30T06:35:50.360Z,94253.44
2017-11-30T06:38:17.831Z,94254.80
2017-11-30T06:40:45.343Z,94253.43
2017-11-30T06:43:12.819Z,94257.75
2017-11-30T06:45:40.362Z,94266.38
2017-11-30T06:48:07.854Z,94264.62
2017-11-30T06:50:35.968Z,94270.59
2017-11-30T06:53:03.553Z,94275.30
2017-11-30T06:55:31.030Z,94276.86
2017-11-30T06:57:58.507Z,94274.24
2017-11-30T07:00:25.997Z,94279.89
2017-11-30T07:02:53.475Z,94286.59
2017-11-30T07:05:21.351Z,94284.23
2017-11-30T07:07:48.826Z,94288.82
2017-11-30T07:10:16.293Z,94288.49
2017-11-30T07:12:43.790Z,94283.45
2017-11-30T07:15:11.264Z,94285.36
2017-11-30T07:17:38.735Z,94276.08
2017-11-30T07:20:06.245Z,94279.83
2017-11-30T07:22:33.722Z,94280.70
2017-11-30T07:25:01.230Z,94278.16
2017-11-30T07:27:29.042Z,94283.50
2017-11-30T07:29:56.537Z,94277.33
2017-11-30T07:32:24.066Z,94286.05
2017-11-30T07:34:51.566Z,94276.53
2017-11-30T07:37:19.113Z,94280.30
2017-11-30T07:39:46.722Z,94285.36
2017-11-30T07:42:14.218Z,94283.70
2017-11-30T07:44:41.693Z,94285.47
2017-11-30T07:47:09.190Z,94286.94
2017-11-30T07:49:36.688Z,94284.42
2017-11-30T07:52:04.216Z,94278.55
2017-11-30T07:54:31.691Z,94276.08
2017-11-30T07:56:59.189Z,94277.86
2017-11-30T07:59:26.662Z,94271.89
2017-11-30T08:01:54.131Z,94275.23
2017-11-30T08:04:21.626Z,94275.77
2017-11-30T08:06:49.106Z,94278.89
2017-11-30T08:09:16.594Z,94280.06
2017-11-30T08:11:44.086Z,94279.16
2017-11-30T08:14:11.553Z,94284.60
2017-11-30T08:16:39.028Z,94274.06
2017-11-30T08:19:06.525Z,94284.87
2017-11-30T08:21:33.996Z,94277.03
2017-11-30T08:24:01.506Z,94282.42
2017-11-30T08:26:28.992Z,94289.08
2017-11-30T08:28:56.458Z,94290.33
2017-11-30T08:31:23.942Z,94284.41
2017-11-30T08:33:51.406Z,94289.09
2017-11-30T08:36:18.894Z,94289.06
2017-11-30T08:38:46.375Z,94294.09
2017-11-30T08:41:13.854Z,94303.22
2017-11-30T08:43:41.506Z,94306.58
2017-11-30T08:46:08.981Z,94301.17
2017-11-30T08:48:36.471Z,94302.42
2017-11-30T08:51:03.938Z,94295.00
2017-11-30T08:53:31.402Z,94304.20
2017-11-30T08:55:58.902Z,94307.98
2017-11-30T08:58:26.378Z,94293.56
2017-11-30T09:00:53.862Z,94307.84
2017-11-30T09:03:21.339Z,94308.70
2017-11-30T09:05:48.810Z,94307.32
2017-11-30T09:08:16.487Z,94306.13
2017-11-30T09:10:43.955Z,94310.67
2017-11-30T09:13:11.426Z,94309.97
2017-11-30T09:15:38.925Z,94310.85
2017-11-30T09:18:06.403Z,94308.03
2017-11-30T09:20:33.871Z,94318.28
2017-11-30T09:23:01.360Z,94311.36
2017-11-30T09:25:28.825Z,94308.88
2017-11-30T09:27:56.295Z,94310.05
2017-11-30T09:30:23.782Z,94312.43
2017-11-30T09:32:51.261Z,94306.36
2017-11-30T09:35:18.731Z,94304.84
2017-11-30T09:37:46.236Z,94305.77
2017-11-30T09:40:13.779Z,94302.50
2017-11-30T09:42:41.260Z,94297.67
2017-11-30T09:45:08.841Z,94302.80
2017-11-30T09:47:36.542Z,94300.84
2017-11-30T09:50:04.019Z,94292.98
2017-11-30T09:52:31.507Z,94300.50
2017-11-30T09:54:58.982Z,94295.95
2017-11-30T09:57:26.846Z,94296.69
2017-11-30T09:59:54.358Z,94295.30
2017-11-30T10:02:21.830Z,94298.75
2017-11-30T10:04:49.306Z,94304.86
2017-11-30T10:07:16.876Z,94286.51
2017-11-30T10:09:44.354Z,94292.13
2017-11-30T10:12:11.829Z,94296.14
2017-11-30T10:14:39.330Z,94293.88
2017-11-30T10:17:06.803Z,94298.34
2017-11-30T10:19:34.293Z,94296.07
2017-11-30T10:22:01.766Z,94294.06
2017-11-30T10:24:29.238Z,94293.67
2017-11-30T10:26:56.722Z,94297.66
2017-11-30T10:29:24.190Z,94286.02
2017-11-30T10:31:51.683Z,94294.33
2017-11-30T10:34:19.152Z,94292.97
2017-11-30T10:36:47.823Z,94290.75
2017-11-30T10:39:15.305Z,94295.87
2017-11-30T10:41:42.775Z,94290.87
2017-11-30T10:44:10.249Z,94285.92
2017-11-30T10:46:37.734Z,94293.02
2017-11-30T10:49:05.211Z,94295.25
2017-11-30T10:51:33.222Z,94298.91
2017-11-30T10:54:00.778Z,94289.75
2017-11-30T10:56:28.251Z,94285.06
2017-11-30T10:58:55.770Z,94284.02
2017-11-30T11:01:23.246Z,94288.80
2017-11-30T11:03:50.785Z,94296.88
2017-11-30T11:06:18.739Z,94300.87
2017-11-30T11:08:46.206Z,94294.26
2017-11-30T11:11:13.712Z,94292.98
2017-11-30T11:13:41.202Z,94298.02
2017-11-30T11:16:08.671Z,94292.95
2017-11-30T11:18:36.350Z,94298.73
2017-11-30T11:21:03.838Z,94300.10
2017-11-30T11:23:31.310Z,94296.94
2017-11-30T11:25:58.774Z,94294.55
2017-11-30T11:28:26.267Z,94296.98
2017-11-30T11:30:53.799Z,94289.20
2017-11-30T11:33:21.278Z,94303.28
2017-11-30T11:35:48.763Z,94298.87
2017-11-30T11:38:16.239Z,94304.42
2017-11-30T11:40:43.714Z,94297.77
2017-11-30T11:43:11.205Z,94303.17
2017-11-30T11:45:38.675Z,94298.33
2017-11-30T11:48:06.179Z,94302.63
2017-11-30T11:50:33.666Z,94296.05
2017-11-30T11:53:01.135Z,94309.81
2017-11-30T11:55:28.606Z,94303.30
2017-11-30T11:57:56.098Z,94296.70
2017-11-30T12:00:23.565Z,94290.19
2017-11-30T12:02:51.035Z,94303.36
2017-11-30T12:05:18.524Z,94295.44
2017-11-30T12:07:46.002Z,94291.95
2017-11-30T12:10:13.525Z,94299.33
2017-11-30T12:12:41.011Z,94303.73
2017-11-30T12:15:08.482Z,94299.84
2017-11-30T12:17:35.990Z,94300.91
2017-11-30T12:20:03.457Z,94304.62
2017-11-30T12:22:30.931Z,94293.41
2017-11-30T12:24:58.413Z,94295.74
2017-11-30T12:27:25.903Z,94298.88
2017-11-30T12:29:53.414Z,94299.78
2017-11-30T12:32:20.882Z,94303.84
2017-11-30T12:34:48.350Z,94295.70
2017-11-30T12:37:15.841Z,94295.97
2017-11-30T12:39:43.310Z,94298.07
2017-11-30T12:42:10.807Z,94297.33
2017-11-30T12:44:38.279Z,94299.52
2017-11-30T12:47:05.755Z,94294.36
2017-11-30T12:49:33.243Z,94295.23
2017-11-30T12:52:00.718Z,94290.34
2017-11-30T12:54:28.206Z,94286.91
2017-11-30T12:56:55.727Z,94288.16
2017-11-30T12:59:23.228Z,94290.08
2017-11-30T13:01:50.708Z,94295.21
2017-11-30T13:04:18.173Z,94297.95
2017-11-30T13:06:45.800Z,94298.62
2017-11-30T13:09:13.273Z,94297.06
2017-11-30T13:11:40.760Z,94301.12
2017-11-30T13:14:08.248Z,94300.19
2017-11-30T13:16:35.713Z,94296.14
2017-11-30T13:19:03.237Z,94305.38
2017-11-30T13:21:30.801Z,94303.75
2017-11-30T13:23:58.268Z,94299.76
2017-11-30T13:26:25.733Z,94297.23
2017-11-30T13:28:53.221Z,94300.45
2017-11-30T13:31:20.685Z,94295.13
2017-11-30T13:33:48.165Z,94301.32
2017-11-30T13:36:15.642Z,94292.91
2017-11-30T13:38:43.113Z,94302.72
2017-11-30T13:41:10.593Z,94296.38
2017-11-30T13:43:38.057Z,94297.72
2017-11-30T13:46:05.573Z,94300.06
2017-11-30T13:48:33.038Z,94303.49
2017-11-30T13:51:00.500Z,94308.80
2017-11-30T13:53:27.993Z,94304.19
2017-11-30T13:55:55.461Z,94305.64
2017-11-30T13:58:22.949Z,94307.63
2017-11-30T14:00:50.417Z,94306.95
2017-11-30T14:03:17.885Z,94309.37
2017-11-30T14:05:45.372Z,94312.81
2017-11-30T14:08:12.846Z,94320.38
2017-11-30T14:10:40.337Z,94317.63
2017-11-30T14:13:07.814Z,94325.83
2017-11-30T14:15:35.289Z,94329.41
2017-11-30T14:18:02.777Z,94328.95
2017-11-30T14:20:30.244Z,94326.19
2017-11-30T14:22:57.705Z,94325.27
2017-11-30T14:25:25.205Z,94329.79
2017-11-30T14:27:52.668Z,94329.54
2017-11-30T14:30:20.142Z,94331.39
2017-11-30T14:32:47.637Z,94332.17
2017-11-30T14:35:15.113Z,94334.02
2017-11-30T14:37:42.644Z,94334.23
2017-11-30T14:40:10.133Z,94338.55
2017-11-30T14:42:37.727Z,94345.48
2017-11-30T14:45:05.189Z,94344.99
2017-11-30T14:47:32.673Z,94350.84
2017-11-30T14:50:00.153Z,94353.83
2017-11-30T14:52:27.621Z,94347.98
2017-11-30T14:54:55.109Z,94348.34
2017-11-30T14:57:22.573Z,94354.23
2017-11-30T14:59:50.037Z,94360.27
2017-11-30T15:02:17.516Z,94364.09
2017-11-30T15:04:44.981Z,94361.73
2017-11-30T15:07:12.473Z,94363.48
2017-11-30T15:09:39.946Z,94367.30
2017-11-30T15:12:07.416Z,94368.67
2017-11-30T15:14:34.929Z,94371.88
2017-11-30T15:17:02.401Z,94370.34
2017-11-30T15:19:29.873Z,94367.87
2017-11-30T15:21:57.356Z,94372.39
2017-11-30T15:24:24.821Z,94373.09
2017-11-30T15:26:52.333Z,94375.87
2017-11-30T15:29:19.824Z,94374.09
2017-11-30T15:31:49.389Z,94378.34
2017-11-30T15:34:16.904Z,94388.04
2017-11-30T15:36:44.395Z,94390.96
2017-11-30T15:39:11.952Z,94389.19
2017-11-30T15:41:39.472Z,94391.94
2017-11-30T15:44:06.961Z,94392.89
2017-11-30T15:46:34.489Z,94393.23
2017-11-30T15:49:01.965Z,94390.70
2017-11-30T15:51:29.453Z,94387.88
2017-11-30T15:53:56.920Z,94393.81
2017-11-30T15:56:24.389Z,94389.91
2017-11-30T15:58:52.029Z,94386.63
2017-11-30T16:01:19.501Z,94389.14
2017-11-30T16:03:46.977Z,94396.09
2017-11-30T16:06:14.469Z,94398.61
2017-11-30T16:08:41.944Z,94402.88
2017-11-30T16:11:09.453Z,94406.98
2017-11-30T16:13:36.928Z,94408.61
2017-11-30T16:16:04.397Z,94409.19
2017-11-30T16:18:31.880Z,94406.75
2017-11-30T16:20:59.349Z,94406.83
2017-11-30T16:23:26.815Z,94408.59
2017-11-30T16:25:54.300Z,94411.88
2017-11-30T16:28:21.769Z,94409.01
2017-11-30T16:30:49.259Z,94409.38
2017-11-30T16:33:16.769Z,94411.00
2017-11-30T16:35:44.247Z,94415.48
2017-11-30T16:38:11.749Z,94421.08
2017-11-30T16:40:39.219Z,94431.87
2017-11-30T16:43:06.731Z,94428.69
2017-11-30T16:45:34.201Z,94429.42
2017-11-30T16:48:01.719Z,94439.28
2017-11-30T16:50:29.189Z,94438.97
2017-11-30T16:52:56.672Z,94442.93
2017-11-30T16:55:24.745Z,94447.09
2017-11-30T16:57:52.242Z,94440.12
2017-11-30T17:00:19.712Z,94435.51
2017-11-30T17:02:47.182Z,94435.52
2017-11-30T17:05:14.682Z,94431.48
2017-11-30T17:07:42.154Z,94440.27
2017-11-30T17:10:09.637Z,94435.11
2017-11-30T17:12:37.101Z,94438.83
2017-11-30T17:15:04.669Z,94442.20
2017-11-30T17:17:32.162Z,94439.00
2017-11-30T17:19:59.730Z,94449.77
2017-11-30T17:22:27.198Z,94448.11
2017-11-30T17:24:54.684Z,94453.30
2017-11-30T17:27:22.158Z,94454.62
2017-11-30T17:29:49.632Z,94453.53
2017-11-30T17:32:17.121Z,94455.28
2017-11-30T17:34:44.593Z,94466.41
2017-11-30T17:37:12.091Z,94458.06
2017-11-30T17:39:39.721Z,94459.77
2017-11-30T17:42:07.189Z,94461.71
2017-11-30T17:44:34.666Z,94457.33
2017-11-30T17:47:02.159Z,94458.13
2017-11-30T17:49:29.633Z,94462.11
2017-11-30T17:51:57.101Z,94461.92
2017-11-30T17:54:24.588Z,94466.47
2017-11-30T17:56:52.157Z,94463.29
2017-11-30T17:59:19.624Z,94461.98
2017-11-30T18:01:47.140Z,94467.83
2017-11-30T18:04:14.608Z,94470.53
2017-11-30T18:06:42.072Z,94469.31
2017-11-30T18:09:09.570Z,94472.50
2017-11-30T18:11:37.041Z,94470.34
2017-11-30T18:14:04.528Z,94471.17
2017-11-30T18:16:32.462Z,94478.28
2017-11-30T18:18:59.937Z,94483.91
2017-11-30T18:21:27.453Z,94475.23
2017-11-30T18:23:54.927Z,94476.28
2017-11-30T18:26:22.413Z,94474.27
2017-11-30T18:28:49.902Z,94476.61
2017-11-30T18:31:17.372Z,94480.16
2017-11-30T18:33:44.856Z,94480.65
2017-11-30T18:36:13.965Z,94486.44
2017-11-30T18:38:41.470Z,94481.53
2017-11-30T18:41:08.940Z,94484.73
2017-11-30T18:43:36.417Z,94484.11
2017-11-30T18:46:04.052Z,94487.62
2017-11-30T18:48:31.527Z,94479.45
2017-11-30T18:50:59.273Z,94477.97
2017-11-30T18:53:26.765Z,94482.16
2017-11-30T18:55:54.253Z,94479.11
2017-11-30T18:58:21.813Z,94484.11
2017-11-30T19:00:49.309Z,94481.73
2017-11-30T19:03:17.408Z,94481.84
2017-11-30T19:05:44.901Z,94478.50
2017-11-30T19:08:12.369Z,94480.34
2017-11-30T19:10:39.857Z,94485.39
2017-11-30T19:13:07.330Z,94482.90
2017-11-30T19:15:34.829Z,94478.36
2017-11-30T19:18:03.016Z,94485.99
2017-11-30T19:20:30.485Z,94480.38
2017-11-30T19:22:57.978Z,94475.72
2017-11-30T19:25:25.449Z,94474.14
2017-11-30T19:27:52.916Z,94476.91
2017-11-30T19:30:21.341Z,94479.64
2017-11-30T19:32:48.873Z,94477.47
2017-11-30T19:35:16.390Z,94481.17
2017-11-30T19:37:43.869Z,94484.15
2017-11-30T19:40:11.341Z,94489.23
2017-11-30T19:42:38.837Z,94493.71
2017-11-30T19:45:06.324Z,94503.97
2017-11-30T19:47:33.793Z,94493.91
2017-11-30T19:50:01.292Z,94500.19
2017-11-30T19:52:28.760Z,94506.36
2017-11-30T19:54:57.105Z,94498.55
2017-11-30T19:57:24.593Z,94503.13
2017-11-30T19:59:52.193Z,94500.75
2017-11-30T20:02:19.852Z,94500.48
2017-11-30T20:04:47.339Z,94507.16
2017-11-30T20:07:14.805Z,94502.72
2017-11-30T20:09:42.280Z,94496.05
2017-11-30T20:12:09.773Z,94504.27
2017-11-30T20:14:37.248Z,94501.69
2017-11-30T20:17:04.744Z,94504.57
2017-11-30T20:19:32.214Z,94507.77
2017-11-30T20:21:59.697Z,94506.91
2017-11-30T20:24:27.188Z,94505.27
2017-11-30T20:26:55.246Z,94508.76
2017-11-30T20:29:22.736Z,94510.69
2017-11-30T20:31:50.209Z,94511.73
2017-11-30T20:34:17.676Z,94521.90
2017-11-30T20:36:45.201Z,94515.22
2017-11-30T20:39:13.570Z,94515.05
2017-11-30T20:41:41.058Z,94517.45
2017-11-30T20:44:08.528Z,94517.25
2017-11-30T20:46:36.001Z,94517.80
2017-11-30T20:49:03.485Z,94522.23
2017-11-30T20:51:30.957Z,94521.80
2017-11-30T20:53:58.445Z,94521.98
2017-11-30T20:56:26.100Z,94528.56
2017-11-30T20:58:53.623Z,94522.78
2017-11-30T21:01:21.108Z,94529.41
2017-11-30T21:03:48.575Z,94527.72
2017-11-30T21:06:16.061Z,94526.52
2017-11-30T21:08:43.532Z,94523.55
2017-11-30T21:11:10.996Z,94524.09
2017-11-30T21:13:39.406Z,94530.81
2017-11-30T21:16:06.877Z,94522.64
2017-11-30T21:18:34.348Z,94529.72
2017-11-30T21:21:01.833Z,94523.91
2017-11-30T21:23:29.309Z,94528.83
2017-11-30T21:25:57.548Z,94528.38
2017-11-30T21:28:25.037Z,94526.04
2017-11-30T21:30:52.501Z,94526.94
2017-11-30T21:33:19.964Z,94526.30
2017-11-30T21:35:47.457Z,94528.69
2017-11-30T21:38:14.989Z,94522.59
2017-11-30T21:40:42.480Z,94526.67
2017-11-30T21:43:09.965Z,94521.54
2017-11-30T21:45:37.433Z,94530.11
2017-11-30T21:48:04.905Z,94530.11
2017-11-30T21:50:32.412Z,94527.67
2017-11-30T21:52:59.877Z,94536.08
2017-11-30T21:55:27.344Z,94528.52
2017-11-30T21:57:54.832Z,94537.41
2017-11-30T22:00:22.307Z,94532.44
2017-11-30T22:02:49.778Z,94538.86
2017-11-30T22:05:18.093Z,94535.44
2017-11-30T22:07:45.573Z,94539.81
2017-11-30T22:10:13.091Z,94541.17
2017-11-30T22:12:40.546Z,94541.12
2017-11-30T22:15:08.016Z,94545.24
2017-11-30T22:17:35.504Z,94549.18
2017-11-30T22:20:02.968Z,94541.48
2017-11-30T22:22:30.440Z,94540.72
2017-11-30T22:24:58.000Z,94541.83
2017-11-30T22:27:25.464Z,94542.41
2017-11-30T22:29:52.933Z,94547.95
2017-11-30T22:32:20.433Z,94552.11
2017-11-30T22:34:47.906Z,94552.90
2017-11-30T22:37:15.376Z,94552.98
2017-11-30T22:39:42.887Z,94563.11
2017-11-30T22:42:10.353Z,94557.88
2017-11-30T22:44:37.825Z,94561.98
2017-11-30T22:47:05.313Z,94552.33
2017-11-30T22:49:32.822Z,94553.88
2017-11-30T22:52:00.297Z,94556.71
2017-11-30T22:54:27.781Z,94559.22
2017-11-30T22:56:55.248Z,94561.16
2017-11-30T22:59:22.713Z,94554.23
2017-11-30T23:01:50.201Z,94553.81
2017-11-30T23:04:17.990Z,94553.12
2017-11-30T23:06:45.473Z,94551.03
2017-11-30T23:09:12.937Z,94554.45
2017-11-30T23:11:40.429Z,94547.97
2017-11-30T23:14:07.900Z,94545.24
2017-11-30T23:16:35.369Z,94537.38
2017-11-30T23:19:02.884Z,94534.05
2017-11-30T23:21:30.348Z,94533.02
2017-11-30T23:23:57.828Z,94534.88
2017-11-30T23:26:25.309Z,94531.26
2017-11-30T23:28:52.787Z,94523.10
2017-11-30T23:31:20.318Z,94533.20
2017-11-30T23:33:47.804Z,94535.11
2017-11-30T23:36:15.274Z,94535.13
2017-11-30T23:38:42.746Z,94532.38
2017-11-30T23:41:10.229Z,94527.31
2017-11-30T23:43:37.697Z,94531.07
2017-11-30T23:46:05.160Z,94531.07
2017-11-30T23:48:32.642Z,94529.54
2017-11-30T23:51:00.122Z,94534.13
2017-11-30T23:53:27.589Z,94531.16
2017-11-30T23:55:55.145Z,94533.80
2017-11-30T23:58:22.613Z,94534.09
